Darstellungsparameter: Aktuell verwendete Einstellungen:
Skalierung der Graphiken ... ?
xyx+y,   Skalierungsfaktor:      Skalierung: Modus: x, Faktor: 1
Darstellungszeitraum ... ?
Vom - - bis: - -   Zeitraum: 07.10.2021 - 07.10.2021
Min/Max/Avg-Anzeige ... ?
Zeige MMA aktuell
Zeige MMA Monat
Zeige MMA alles
Zeige --A aktuell
Zeige --A Monat
Zeige --A alles
Keine MMA-Anzeige
MMA:
Average (ber die Originaldaten)
MMA-Basis: 07.10.2021 - 07.10.2021
Quicknavigation für Darstellung... ?
Tage:      1T, 2T, 3T, 5T -1T -2T -3T -5T +1T +2T +3T +5T
Wochen: 1W, 2W, 3W -1W -2W -3W +1W +2W +3W
Monate: 1M, 3M, 6M -1M -3M -6M +1M +3M +6M
Jahre:    1J, 3J, 5J, 10J -1J -3J -5J -10J +1J +3J +5J +10J
Nutze für die Darstellung ... ?
Originaldaten oder Mittelwerte auf ...
Stundenbasis Tagesbasis Wochenbasis
Monatsbasis Jahresbasis      Datenbasis: Original-Daten
Darstellen als:
Statistik (Auto) Statistik J:M      Darstellung:
Zur Graphik,    zurück zur Übersicht aller Sensoren.
 
Tabellarische Datenbersicht: ?
 
Sensor: Nr:Datum:Temp:Abs-Feuchte:Windchill:Wind:
Aussen-T/F 1 07-10-2021 00:00:00 11 C 9.41 g/m*3 10.52 C 6.4 km/h
2 07-10-2021 00:05:00 11 C 9.41 g/m*3 11 C 1.6 km/h
3 07-10-2021 00:10:00 11 C 9.51 g/m*3 11 C 3.2 km/h
4 07-10-2021 00:15:00 11.1 C 9.57 g/m*3 11.1 C 8.1 km/h
5 07-10-2021 00:20:00 11 C 9.51 g/m*3 10.52 C 6.4 km/h
6 07-10-2021 00:25:00 11.1 C 9.57 g/m*3 11.1 C 4.8 km/h
7 07-10-2021 00:30:00 11.1 C 9.57 g/m*3 11.1 C 4.8 km/h
8 07-10-2021 00:35:00 11.1 C 9.57 g/m*3 11.1 C 3.2 km/h
9 07-10-2021 00:40:00 11.1 C 9.57 g/m*3 11.1 C 1.6 km/h
10 07-10-2021 00:45:00 11.1 C 9.57 g/m*3 11.1 C 8.1 km/h
11 07-10-2021 00:50:00 11 C 9.51 g/m*3 10.16 C 8.1 km/h
12 07-10-2021 00:55:00 11 C 9.51 g/m*3 9.88 C 9.7 km/h
13 07-10-2021 01:00:00 11 C 9.51 g/m*3 11 C 3.2 km/h
14 07-10-2021 01:05:00 11 C 9.51 g/m*3 10.52 C 6.4 km/h
15 07-10-2021 01:10:00 11 C 9.51 g/m*3 11 C 4.8 km/h
16 07-10-2021 01:15:00 11 C 9.51 g/m*3 10.52 C 6.4 km/h
17 07-10-2021 01:20:00 11 C 9.51 g/m*3 11 C 3.2 km/h
18 07-10-2021 01:25:00 10.9 C 9.45 g/m*3 10.9 C 1.6 km/h
19 07-10-2021 01:30:00 10.9 C 9.45 g/m*3 10.9 C 3.2 km/h
20 07-10-2021 01:35:00 11 C 9.51 g/m*3 11 C 1.6 km/h
21 07-10-2021 01:40:00 11 C 9.51 g/m*3 11 C 4.8 km/h
22 07-10-2021 01:45:00 11 C 9.51 g/m*3 11 C 4.8 km/h
23 07-10-2021 01:50:00 11 C 9.51 g/m*3 11 C 4.8 km/h
24 07-10-2021 01:55:00 11 C 9.51 g/m*3 10.16 C 8.1 km/h
25 07-10-2021 02:00:00 11 C 9.51 g/m*3 11 C 1.6 km/h
Sensor: Nr:Datum:Temp:Abs-Feuchte:Windchill:Wind:
Aussen-T/F 26 07-10-2021 02:05:00 11 C 9.51 g/m*3 11 C 1.6 km/h
27 07-10-2021 02:10:00 11 C 9.51 g/m*3 11 C 3.2 km/h
28 07-10-2021 02:15:00 11 C 9.51 g/m*3 11 C 0 km/h
29 07-10-2021 02:20:00 11 C 9.51 g/m*3 11 C 3.2 km/h
30 07-10-2021 02:25:00 11 C 9.51 g/m*3 11 C 4.8 km/h
31 07-10-2021 02:30:00 11 C 9.51 g/m*3 11 C 0 km/h
32 07-10-2021 02:35:00 11 C 9.51 g/m*3 11 C 0 km/h
33 07-10-2021 02:40:00 11 C 9.51 g/m*3 11 C 0 km/h
34 07-10-2021 02:45:00 11 C 9.51 g/m*3 11 C 1.6 km/h
35 07-10-2021 02:50:00 11.1 C 9.57 g/m*3 11.1 C 1.6 km/h
36 07-10-2021 02:55:00 11.1 C 9.57 g/m*3 11.1 C 1.6 km/h
37 07-10-2021 03:00:00 11.1 C 9.57 g/m*3 11.1 C 0 km/h
38 07-10-2021 03:05:00 11.1 C 9.57 g/m*3 11.1 C 0 km/h
39 07-10-2021 03:10:00 11.1 C 9.57 g/m*3 11.1 C 0 km/h
40 07-10-2021 03:15:00 11.1 C 9.57 g/m*3 11.1 C 1.6 km/h
41 07-10-2021 03:20:00 11 C 9.51 g/m*3 11 C 0 km/h
42 07-10-2021 03:25:00 11 C 9.51 g/m*3 11 C 0 km/h
43 07-10-2021 03:30:00 10.9 C 9.45 g/m*3 10.9 C 0 km/h
44 07-10-2021 03:35:00 10.9 C 9.45 g/m*3 10.9 C 0 km/h
45 07-10-2021 03:40:00 10.9 C 9.45 g/m*3 10.9 C 0 km/h
46 07-10-2021 03:45:00 10.9 C 9.45 g/m*3 10.9 C 0 km/h
47 07-10-2021 03:50:00 10.9 C 9.45 g/m*3 10.9 C 0 km/h
48 07-10-2021 03:55:00 10.9 C 9.45 g/m*3 10.9 C 0 km/h
49 07-10-2021 04:00:00 10.9 C 9.45 g/m*3 10.9 C 0 km/h
50 07-10-2021 04:05:00 10.9 C 9.55 g/m*3 10.9 C 0 km/h
Sensor: Nr:Datum:Temp:Abs-Feuchte:Windchill:Wind:
Aussen-T/F 51 07-10-2021 04:10:00 10.9 C 9.55 g/m*3 10.9 C 1.6 km/h
52 07-10-2021 04:15:00 10.9 C 9.55 g/m*3 10.9 C 0 km/h
53 07-10-2021 04:20:00 10.9 C 9.55 g/m*3 10.9 C 3.2 km/h
54 07-10-2021 04:25:00 10.9 C 9.55 g/m*3 10.9 C 3.2 km/h
55 07-10-2021 04:30:00 10.9 C 9.55 g/m*3 10.9 C 0 km/h
56 07-10-2021 04:35:00 10.9 C 9.55 g/m*3 10.9 C 0 km/h
57 07-10-2021 04:40:00 10.9 C 9.55 g/m*3 10.9 C 0 km/h
58 07-10-2021 04:45:00 10.9 C 9.55 g/m*3 10.9 C 0 km/h
59 07-10-2021 04:50:00 10.9 C 9.55 g/m*3 10.9 C 0 km/h
60 07-10-2021 04:55:00 10.9 C 9.55 g/m*3 10.9 C 0 km/h
61 07-10-2021 05:00:00 10.9 C 9.55 g/m*3 10.9 C 0 km/h
62 07-10-2021 05:05:00 10.9 C 9.55 g/m*3 10.9 C 0 km/h
63 07-10-2021 05:10:00 10.9 C 9.55 g/m*3 10.9 C 0 km/h
64 07-10-2021 05:15:00 11 C 9.61 g/m*3 11 C 1.6 km/h
65 07-10-2021 05:20:00 11 C 9.61 g/m*3 11 C 0 km/h
66 07-10-2021 05:25:00 11.1 C 9.67 g/m*3 11.1 C 0 km/h
67 07-10-2021 05:30:00 11.1 C 9.67 g/m*3 11.1 C 0 km/h
68 07-10-2021 05:35:00 11.1 C 9.67 g/m*3 11.1 C 0 km/h
69 07-10-2021 05:40:00 11.1 C 9.67 g/m*3 11.1 C 0 km/h
70 07-10-2021 05:45:00 11.1 C 9.67 g/m*3 11.1 C 0 km/h
71 07-10-2021 05:50:00 11.1 C 9.67 g/m*3 11.1 C 0 km/h
72 07-10-2021 05:55:00 11.1 C 9.67 g/m*3 11.1 C 0 km/h
73 07-10-2021 06:00:00 11.1 C 9.67 g/m*3 11.1 C 0 km/h
74 07-10-2021 06:05:00 11.1 C 9.67 g/m*3 11.1 C 0 km/h
75 07-10-2021 06:10:00 11.1 C 9.67 g/m*3 11.1 C 0 km/h
Sensor: Nr:Datum:Temp:Abs-Feuchte:Windchill:Wind:
Aussen-T/F 76 07-10-2021 06:15:00 11.1 C 9.67 g/m*3 11.1 C 0 km/h
77 07-10-2021 06:20:00 11.1 C 9.67 g/m*3 11.1 C 0 km/h
78 07-10-2021 06:25:00 11.1 C 9.67 g/m*3 11.1 C 0 km/h
79 07-10-2021 06:30:00 11.1 C 9.67 g/m*3 11.1 C 0 km/h
80 07-10-2021 06:35:00 11.1 C 9.67 g/m*3 11.1 C 0 km/h
81 07-10-2021 06:40:00 11.1 C 9.67 g/m*3 11.1 C 0 km/h
82 07-10-2021 06:45:00 11.1 C 9.67 g/m*3 11.1 C 0 km/h
83 07-10-2021 06:50:00 11.1 C 9.67 g/m*3 11.1 C 0 km/h
84 07-10-2021 06:55:00 11.1 C 9.67 g/m*3 11.1 C 0 km/h
85 07-10-2021 07:00:00 11 C 9.61 g/m*3 11 C 0 km/h
86 07-10-2021 07:05:00 11.1 C 9.67 g/m*3 11.1 C 0 km/h
87 07-10-2021 07:10:00 11 C 9.61 g/m*3 11 C 0 km/h
88 07-10-2021 07:15:00 11 C 9.61 g/m*3 11 C 0 km/h
89 07-10-2021 07:20:00 11.1 C 9.67 g/m*3 11.1 C 0 km/h
90 07-10-2021 07:25:00 11.1 C 9.67 g/m*3 11.1 C 0 km/h
91 07-10-2021 07:30:00 11 C 9.61 g/m*3 11 C 0 km/h
92 07-10-2021 07:35:00 11 C 9.61 g/m*3 11 C 0 km/h
93 07-10-2021 07:40:00 11.1 C 9.67 g/m*3 11.1 C 0 km/h
94 07-10-2021 07:45:00 11.1 C 9.67 g/m*3 11.1 C 0 km/h
95 07-10-2021 07:50:00 11.1 C 9.67 g/m*3 11.1 C 0 km/h
96 07-10-2021 07:55:00 11.1 C 9.67 g/m*3 11.1 C 0 km/h
97 07-10-2021 08:00:00 11.1 C 9.67 g/m*3 11.1 C 0 km/h
98 07-10-2021 08:05:00 11.1 C 9.67 g/m*3 11.1 C 0 km/h
99 07-10-2021 08:10:00 11.1 C 9.67 g/m*3 11.1 C 0 km/h
100 07-10-2021 08:15:00 11.2 C 9.73 g/m*3 11.2 C 0 km/h
Sensor: Nr:Datum:Temp:Abs-Feuchte:Windchill:Wind:
Aussen-T/F 101 07-10-2021 08:20:00 11.2 C 9.73 g/m*3 11.2 C 0 km/h
102 07-10-2021 08:25:00 11.2 C 9.73 g/m*3 11.2 C 0 km/h
103 07-10-2021 08:30:00 11.2 C 9.73 g/m*3 11.2 C 0 km/h
104 07-10-2021 08:35:00 11.2 C 9.73 g/m*3 11.2 C 0 km/h
105 07-10-2021 08:40:00 11.2 C 9.73 g/m*3 11.2 C 0 km/h
106 07-10-2021 08:45:00 11.2 C 9.73 g/m*3 11.2 C 0 km/h
107 07-10-2021 08:50:00 11.3 C 9.79 g/m*3 11.3 C 0 km/h
108 07-10-2021 08:55:00 11.3 C 9.79 g/m*3 11.3 C 0 km/h
109 07-10-2021 09:00:00 11.3 C 9.79 g/m*3 11.3 C 1.6 km/h
110 07-10-2021 09:05:00 11.4 C 9.85 g/m*3 11.4 C 0 km/h
111 07-10-2021 09:10:00 11.5 C 9.92 g/m*3 11.5 C 0 km/h
112 07-10-2021 09:15:00 11.5 C 9.92 g/m*3 11.5 C 0 km/h
113 07-10-2021 09:20:00 11.5 C 9.92 g/m*3 11.5 C 0 km/h
114 07-10-2021 09:25:00 11.6 C 9.98 g/m*3 11.6 C 0 km/h
115 07-10-2021 09:30:00 11.7 C 10.04 g/m*3 11.7 C 1.6 km/h
116 07-10-2021 09:35:00 11.7 C 10.04 g/m*3 11.7 C 1.6 km/h
117 07-10-2021 09:40:00 11.8 C 10.1 g/m*3 11.8 C 1.6 km/h
118 07-10-2021 09:45:00 11.8 C 10.1 g/m*3 11.8 C 3.2 km/h
119 07-10-2021 09:50:00 12 C 10.23 g/m*3 12 C 4.8 km/h
120 07-10-2021 09:55:00 12 C 10.23 g/m*3 12 C 6.4 km/h
121 07-10-2021 10:00:00 12 C 10.23 g/m*3 12 C 1.6 km/h
122 07-10-2021 10:05:00 11.9 C 10.17 g/m*3 11.9 C 6.4 km/h
123 07-10-2021 10:10:00 11.9 C 10.06 g/m*3 11.9 C 3.2 km/h
124 07-10-2021 10:15:00 11.9 C 10.06 g/m*3 11.9 C 0 km/h
125 07-10-2021 10:20:00 11.9 C 10.06 g/m*3 11.9 C 0 km/h
Sensor: Nr:Datum:Temp:Abs-Feuchte:Windchill:Wind:
Aussen-T/F 126 07-10-2021 10:25:00 11.9 C 10.06 g/m*3 11.9 C 0 km/h
127 07-10-2021 10:30:00 11.9 C 10.17 g/m*3 11.9 C 0 km/h
128 07-10-2021 10:35:00 12.1 C 10.29 g/m*3 12.1 C 0 km/h
129 07-10-2021 10:40:00 12.2 C 10.25 g/m*3 12.2 C 0 km/h
130 07-10-2021 10:45:00 12.2 C 10.25 g/m*3 12.2 C 0 km/h
131 07-10-2021 10:50:00 12.2 C 10.25 g/m*3 12.2 C 0 km/h
132 07-10-2021 10:55:00 12.3 C 10.32 g/m*3 12.3 C 0 km/h
133 07-10-2021 11:00:00 12.3 C 10.32 g/m*3 12.3 C 0 km/h
134 07-10-2021 11:05:00 12.4 C 10.38 g/m*3 12.4 C 0 km/h
135 07-10-2021 11:10:00 12.5 C 10.44 g/m*3 12.5 C 1.6 km/h
136 07-10-2021 11:15:00 12.6 C 10.62 g/m*3 12.6 C 1.6 km/h
137 07-10-2021 11:20:00 12.7 C 10.69 g/m*3 12.7 C 0 km/h
138 07-10-2021 11:25:00 12.8 C 10.75 g/m*3 12.8 C 3.2 km/h
139 07-10-2021 11:30:00 12.8 C 10.64 g/m*3 12.8 C 1.6 km/h
140 07-10-2021 11:35:00 12.9 C 10.82 g/m*3 12.9 C 1.6 km/h
141 07-10-2021 11:40:00 13 C 10.89 g/m*3 13 C 0 km/h
142 07-10-2021 11:45:00 13.1 C 10.84 g/m*3 13.1 C 1.6 km/h
143 07-10-2021 11:50:00 13.1 C 10.84 g/m*3 13.1 C 1.6 km/h
144 07-10-2021 11:55:00 13.3 C 11.09 g/m*3 13.3 C 0 km/h
145 07-10-2021 12:00:00 13.4 C 11.16 g/m*3 13.4 C 0 km/h
146 07-10-2021 12:05:00 13.4 C 10.93 g/m*3 13.4 C 3.2 km/h
147 07-10-2021 12:10:00 13.3 C 10.74 g/m*3 13.3 C 1.6 km/h
148 07-10-2021 12:15:00 13.3 C 10.74 g/m*3 13.3 C 0 km/h
149 07-10-2021 12:20:00 13.4 C 10.69 g/m*3 13.4 C 1.6 km/h
150 07-10-2021 12:25:00 13.4 C 10.46 g/m*3 13.4 C 1.6 km/h
Sensor: Nr:Datum:Temp:Abs-Feuchte:Windchill:Wind:
Aussen-T/F 151 07-10-2021 12:30:00 13.5 C 10.53 g/m*3 13.5 C 1.6 km/h
152 07-10-2021 12:35:00 13.6 C 10.59 g/m*3 13.6 C 1.6 km/h
153 07-10-2021 12:40:00 13.8 C 10.6 g/m*3 13.8 C 1.6 km/h
154 07-10-2021 12:45:00 14 C 10.61 g/m*3 14 C 3.2 km/h
155 07-10-2021 12:50:00 14.1 C 10.56 g/m*3 14.1 C 3.2 km/h
156 07-10-2021 12:55:00 14.2 C 10.5 g/m*3 14.2 C 6.4 km/h
157 07-10-2021 13:00:00 14.3 C 10.69 g/m*3 14.3 C 3.2 km/h
158 07-10-2021 13:05:00 14.3 C 10.44 g/m*3 14.3 C 1.6 km/h
159 07-10-2021 13:10:00 14.3 C 10.57 g/m*3 14.3 C 0 km/h
160 07-10-2021 13:15:00 14.4 C 10.88 g/m*3 14.4 C 0 km/h
161 07-10-2021 13:20:00 14.6 C 10.89 g/m*3 14.6 C 1.6 km/h
162 07-10-2021 13:25:00 14.6 C 10.64 g/m*3 14.6 C 1.6 km/h
163 07-10-2021 13:30:00 14.6 C 10.64 g/m*3 14.6 C 1.6 km/h
164 07-10-2021 13:35:00 14.6 C 10.39 g/m*3 14.6 C 3.2 km/h
165 07-10-2021 13:40:00 14.7 C 10.32 g/m*3 14.7 C 0 km/h
166 07-10-2021 13:45:00 14.7 C 10.32 g/m*3 14.7 C 8.1 km/h
167 07-10-2021 13:50:00 14.8 C 10.39 g/m*3 14.8 C 4.8 km/h
168 07-10-2021 13:55:00 15 C 10.51 g/m*3 15 C 6.4 km/h
169 07-10-2021 14:00:00 15.1 C 10.45 g/m*3 15.1 C 6.4 km/h
170 07-10-2021 14:05:00 15.2 C 10.51 g/m*3 15.2 C 4.8 km/h
171 07-10-2021 14:10:00 15.3 C 10.58 g/m*3 15.3 C 8.1 km/h
172 07-10-2021 14:15:00 15.3 C 10.45 g/m*3 15.3 C 4.8 km/h
173 07-10-2021 14:20:00 15.3 C 10.58 g/m*3 15.3 C 1.6 km/h
174 07-10-2021 14:25:00 15.4 C 10.77 g/m*3 15.4 C 0 km/h
175 07-10-2021 14:30:00 15.4 C 10.51 g/m*3 15.4 C 4.8 km/h
Sensor: Nr:Datum:Temp:Abs-Feuchte:Windchill:Wind:
Aussen-T/F 176 07-10-2021 14:35:00 15.4 C 10.38 g/m*3 15.4 C 6.4 km/h
177 07-10-2021 14:40:00 15.4 C 10.51 g/m*3 15.4 C 6.4 km/h
178 07-10-2021 14:45:00 15.4 C 10.51 g/m*3 15.4 C 8.1 km/h
179 07-10-2021 14:50:00 15.4 C 10.51 g/m*3 15.4 C 6.4 km/h
180 07-10-2021 14:55:00 15.4 C 10.51 g/m*3 15.4 C 3.2 km/h
181 07-10-2021 15:00:00 15.6 C 10.64 g/m*3 15.6 C 9.7 km/h
182 07-10-2021 15:05:00 15.7 C 10.57 g/m*3 15.7 C 9.7 km/h
183 07-10-2021 15:10:00 15.9 C 10.7 g/m*3 15.9 C 12.9 km/h
184 07-10-2021 15:15:00 15.9 C 10.43 g/m*3 15.9 C 6.4 km/h
185 07-10-2021 15:20:00 15.9 C 10.16 g/m*3 15.9 C 3.2 km/h
186 07-10-2021 15:25:00 16 C 10.35 g/m*3 16 C 4.8 km/h
187 07-10-2021 15:30:00 16.1 C 10.28 g/m*3 16.1 C 6.4 km/h
188 07-10-2021 15:35:00 16.3 C 10.27 g/m*3 16.3 C 4.8 km/h
189 07-10-2021 15:40:00 16.4 C 10.19 g/m*3 16.4 C 8.1 km/h
190 07-10-2021 15:45:00 16.5 C 10.39 g/m*3 16.5 C 6.4 km/h
191 07-10-2021 15:50:00 16.6 C 10.45 g/m*3 16.6 C 8.1 km/h
192 07-10-2021 15:55:00 16.6 C 10.17 g/m*3 16.6 C 6.4 km/h
193 07-10-2021 16:00:00 16.5 C 10.25 g/m*3 16.5 C 11.3 km/h
194 07-10-2021 16:05:00 16.4 C 10.19 g/m*3 16.4 C 8.1 km/h
195 07-10-2021 16:10:00 16.4 C 10.33 g/m*3 16.4 C 9.7 km/h
196 07-10-2021 16:15:00 16.4 C 10.19 g/m*3 16.4 C 12.9 km/h
197 07-10-2021 16:20:00 16.4 C 10.19 g/m*3 16.4 C 12.9 km/h
198 07-10-2021 16:25:00 16.3 C 10.27 g/m*3 16.3 C 8.1 km/h
199 07-10-2021 16:30:00 16.3 C 10.27 g/m*3 16.3 C 9.7 km/h
200 07-10-2021 16:35:00 16.2 C 10.2 g/m*3 16.2 C 12.9 km/h
Sensor: Nr:Datum:Temp:Abs-Feuchte:Windchill:Wind:
Aussen-T/F 201 07-10-2021 16:40:00 16.2 C 10.2 g/m*3 16.2 C 12.9 km/h
202 07-10-2021 16:45:00 16.3 C 10.41 g/m*3 16.3 C 8.1 km/h
203 07-10-2021 16:50:00 16.3 C 10.27 g/m*3 16.3 C 1.6 km/h
204 07-10-2021 16:55:00 16.2 C 10.2 g/m*3 16.2 C 1.6 km/h
205 07-10-2021 17:00:00 16.2 C 10.48 g/m*3 16.2 C 0 km/h
206 07-10-2021 17:05:00 16.2 C 10.89 g/m*3 16.2 C 0 km/h
207 07-10-2021 17:10:00 16.1 C 10.69 g/m*3 16.1 C 1.6 km/h
208 07-10-2021 17:15:00 16.1 C 10.28 g/m*3 16.1 C 3.2 km/h
209 07-10-2021 17:20:00 16.1 C 10.14 g/m*3 16.1 C 6.4 km/h
210 07-10-2021 17:25:00 16.1 C 10.14 g/m*3 16.1 C 6.4 km/h
211 07-10-2021 17:30:00 16.3 C 10.41 g/m*3 16.3 C 8.1 km/h
212 07-10-2021 17:35:00 16.6 C 10.31 g/m*3 16.6 C 6.4 km/h
213 07-10-2021 17:40:00 16.8 C 10.44 g/m*3 16.8 C 3.2 km/h
214 07-10-2021 17:45:00 17.2 C 10.98 g/m*3 17.2 C 0 km/h
215 07-10-2021 17:50:00 17.4 C 10.82 g/m*3 17.4 C 1.6 km/h
216 07-10-2021 17:55:00 17.2 C 10.54 g/m*3 17.2 C 4.8 km/h
217 07-10-2021 18:00:00 17 C 10.42 g/m*3 17 C 4.8 km/h
218 07-10-2021 18:05:00 16.8 C 10.87 g/m*3 16.8 C 0 km/h
219 07-10-2021 18:10:00 16.7 C 11.23 g/m*3 16.7 C 0 km/h
220 07-10-2021 18:15:00 16.6 C 11.16 g/m*3 16.6 C 0 km/h
221 07-10-2021 18:20:00 16.4 C 11.03 g/m*3 16.4 C 0 km/h
222 07-10-2021 18:25:00 16.1 C 10.83 g/m*3 16.1 C 3.2 km/h
223 07-10-2021 18:30:00 15.7 C 10.7 g/m*3 15.7 C 4.8 km/h
224 07-10-2021 18:35:00 15.4 C 10.64 g/m*3 15.4 C 4.8 km/h
225 07-10-2021 18:40:00 15 C 10.39 g/m*3 15 C 6.4 km/h
Sensor: Nr:Datum:Temp:Abs-Feuchte:Windchill:Wind:
Aussen-T/F 226 07-10-2021 18:45:00 14.7 C 10.32 g/m*3 14.7 C 4.8 km/h
227 07-10-2021 18:50:00 14.3 C 10.07 g/m*3 14.3 C 4.8 km/h
228 07-10-2021 18:55:00 13.9 C 9.95 g/m*3 13.9 C 3.2 km/h
229 07-10-2021 19:00:00 13.7 C 9.95 g/m*3 13.7 C 3.2 km/h
230 07-10-2021 19:05:00 13.4 C 9.76 g/m*3 13.4 C 1.6 km/h
231 07-10-2021 19:10:00 13.1 C 9.7 g/m*3 13.1 C 3.2 km/h
232 07-10-2021 19:15:00 12.8 C 9.63 g/m*3 12.8 C 4.8 km/h
233 07-10-2021 19:20:00 12.7 C 9.57 g/m*3 12.7 C 3.2 km/h
234 07-10-2021 19:25:00 12.4 C 9.51 g/m*3 12.4 C 4.8 km/h
235 07-10-2021 19:30:00 12.3 C 9.45 g/m*3 12.3 C 4.8 km/h
236 07-10-2021 19:35:00 12.1 C 9.44 g/m*3 12.1 C 1.6 km/h
237 07-10-2021 19:40:00 11.9 C 9.32 g/m*3 11.9 C 3.2 km/h
238 07-10-2021 19:45:00 11.8 C 9.26 g/m*3 11.8 C 1.6 km/h
239 07-10-2021 19:50:00 11.7 C 9.31 g/m*3 11.7 C 4.8 km/h
240 07-10-2021 19:55:00 11.6 C 9.25 g/m*3 11.6 C 4.8 km/h
241 07-10-2021 20:00:00 11.4 C 9.14 g/m*3 11.4 C 4.8 km/h
242 07-10-2021 20:05:00 11.3 C 9.18 g/m*3 11.3 C 1.6 km/h
243 07-10-2021 20:10:00 11.2 C 9.12 g/m*3 11.2 C 1.6 km/h
244 07-10-2021 20:15:00 11.2 C 9.12 g/m*3 11.2 C 0 km/h
245 07-10-2021 20:20:00 11 C 9.01 g/m*3 11 C 1.6 km/h
246 07-10-2021 20:25:00 10.9 C 8.95 g/m*3 10.9 C 3.2 km/h
247 07-10-2021 20:30:00 10.8 C 8.99 g/m*3 10.8 C 1.6 km/h
248 07-10-2021 20:35:00 10.7 C 8.94 g/m*3 10.7 C 1.6 km/h
249 07-10-2021 20:40:00 10.6 C 8.88 g/m*3 10.6 C 1.6 km/h
250 07-10-2021 20:45:00 10.5 C 8.83 g/m*3 10.5 C 0 km/h
Sensor: Nr:Datum:Temp:Abs-Feuchte:Windchill:Wind:
Aussen-T/F 251 07-10-2021 20:50:00 10.4 C 8.77 g/m*3 10.4 C 0 km/h
252 07-10-2021 20:55:00 10.3 C 8.71 g/m*3 10.3 C 0 km/h
253 07-10-2021 21:00:00 10.2 C 8.66 g/m*3 10.2 C 1.6 km/h
254 07-10-2021 21:05:00 10 C 8.64 g/m*3 10 C 0 km/h
255 07-10-2021 21:10:00 9.9 C 8.59 g/m*3 9.9 C 0 km/h
256 07-10-2021 21:15:00 9.8 C 8.54 g/m*3 9.8 C 0 km/h
257 07-10-2021 21:20:00 9.7 C 8.48 g/m*3 9.7 C 0 km/h
258 07-10-2021 21:25:00 9.6 C 8.43 g/m*3 9.6 C 0 km/h
259 07-10-2021 21:30:00 9.5 C 8.37 g/m*3 9.5 C 0 km/h
260 07-10-2021 21:35:00 9.4 C 8.32 g/m*3 9.4 C 0 km/h
261 07-10-2021 21:40:00 9.3 C 8.27 g/m*3 9.3 C 0 km/h
262 07-10-2021 21:45:00 9.3 C 8.27 g/m*3 9.3 C 0 km/h
263 07-10-2021 21:50:00 9.2 C 8.3 g/m*3 9.2 C 0 km/h
264 07-10-2021 21:55:00 9.1 C 8.25 g/m*3 9.1 C 0 km/h
265 07-10-2021 22:00:00 9.1 C 8.25 g/m*3 9.1 C 0 km/h
266 07-10-2021 22:05:00 9 C 8.2 g/m*3 9 C 0 km/h
267 07-10-2021 22:10:00 8.9 C 8.15 g/m*3 8.9 C 0 km/h
268 07-10-2021 22:15:00 8.9 C 8.15 g/m*3 8.9 C 0 km/h
269 07-10-2021 22:20:00 8.9 C 8.15 g/m*3 8.9 C 0 km/h
270 07-10-2021 22:25:00 8.9 C 8.15 g/m*3 8.9 C 0 km/h
271 07-10-2021 22:30:00 8.8 C 8.09 g/m*3 8.8 C 0 km/h
272 07-10-2021 22:35:00 8.8 C 8.09 g/m*3 8.8 C 0 km/h
273 07-10-2021 22:40:00 8.7 C 8.04 g/m*3 8.7 C 0 km/h
274 07-10-2021 22:45:00 8.6 C 7.99 g/m*3 8.6 C 0 km/h
275 07-10-2021 22:50:00 8.6 C 8.08 g/m*3 8.6 C 0 km/h
Sensor: Nr:Datum:Temp:Abs-Feuchte:Windchill:Wind:
Aussen-T/F 276 07-10-2021 22:55:00 8.6 C 8.08 g/m*3 8.6 C 0 km/h
277 07-10-2021 23:00:00 8.5 C 8.03 g/m*3 8.5 C 0 km/h
278 07-10-2021 23:05:00 8.4 C 7.97 g/m*3 8.4 C 0 km/h
279 07-10-2021 23:10:00 8.4 C 7.97 g/m*3 8.4 C 0 km/h
280 07-10-2021 23:15:00 8.3 C 7.92 g/m*3 8.3 C 0 km/h
281 07-10-2021 23:20:00 8.3 C 7.92 g/m*3 8.3 C 0 km/h
282 07-10-2021 23:25:00 8.2 C 7.87 g/m*3 8.2 C 0 km/h
283 07-10-2021 23:30:00 8.2 C 7.87 g/m*3 8.2 C 0 km/h
284 07-10-2021 23:35:00 8.1 C 7.82 g/m*3 8.1 C 0 km/h
285 07-10-2021 23:40:00 8.1 C 7.82 g/m*3 8.1 C 0 km/h
286 07-10-2021 23:45:00 8.1 C 7.82 g/m*3 8.1 C 0 km/h
287 07-10-2021 23:50:00 8.1 C 7.82 g/m*3 8.1 C 0 km/h
288 07-10-2021 23:55:00 8.1 C 7.82 g/m*3 8.1 C 0 km/h

Legende:
   Min
   Max


Maximal/Minimal-Werte vom 07.10.2021 - 07.10.2021

Sensor Min Max Avg
Temp
(Aussen-T/F)
8.1 °C
07-10-2021  23:35:00
17.4 °C
07-10-2021  17:50:00
12.25 °C
Abs-Feuchte
(Aussen-T/F)
7.82 g/m*3
07-10-2021  23:35:00
11.23 g/m*3
07-10-2021  18:10:00
9.7 g/m*3
Windchill
(Aussen-T/F)
8.1 C
07-10-2021  23:35:00
17.4 C
07-10-2021  17:50:00
12.19 C

Die Daten stammen von einer Davis Vantage Pro 2 Wetter-Station und werden unter Linux mit der Software wview2wettercgi und aufbereitet. Alle Angaben erfolgen ohne Gewähr für ihre Vollständigkeit oder Richtigkeit.
Kontakt: Rainer Krienke krienke@uni-koblenz.de . Meine Webseiten an der Uni Koblenz oder privat.
Version: $Revision: 0.78 $